createdAt,value
2023-02-15T00:01:23.673Z,97.90
2023-02-15T00:03:53.422Z,98.64
2023-02-15T00:06:22.731Z,99.06
2023-02-15T00:08:52.478Z,99.05
2023-02-15T00:11:23.369Z,98.77
2023-02-15T00:13:52.863Z,98.44
2023-02-15T00:16:22.117Z,98.20
2023-02-15T00:18:53.561Z,98.55
2023-02-15T00:21:22.798Z,99.44
2023-02-15T00:23:52.528Z,99.15
2023-02-15T00:26:21.792Z,98.94
2023-02-15T00:28:52.012Z,98.84
2023-02-15T00:31:22.131Z,98.68
2023-02-15T00:33:51.508Z,98.87
2023-02-15T00:36:21.180Z,98.78
2023-02-15T00:38:51.260Z,98.88
2023-02-15T00:41:20.518Z,99.01
2023-02-15T00:43:49.805Z,99.34
2023-02-15T00:46:19.223Z,99.15
2023-02-15T00:48:49.119Z,99.02
2023-02-15T00:51:19.069Z,99.09
2023-02-15T00:53:48.613Z,99.07
2023-02-15T00:56:18.307Z,99.26
2023-02-15T00:58:47.968Z,99.33
2023-02-15T01:01:19.813Z,99.16
2023-02-15T01:03:49.842Z,99.38
2023-02-15T01:06:19.826Z,99.44
2023-02-15T01:08:49.781Z,99.36
2023-02-15T01:11:23.649Z,99.25
2023-02-15T01:13:58.174Z,99.30
2023-02-15T01:16:29.058Z,99.59
2023-02-15T01:18:59.128Z,99.53
2023-02-15T01:21:28.882Z,100.00
2023-02-15T01:23:58.366Z,99.84
2023-02-15T01:26:27.675Z,99.69
2023-02-15T01:28:56.930Z,100.00
2023-02-15T01:31:26.372Z,99.94
2023-02-15T01:33:56.181Z,99.73
2023-02-15T01:36:25.482Z,99.83
2023-02-15T01:38:56.498Z,99.79
2023-02-15T01:41:28.242Z,99.69
2023-02-15T01:43:59.850Z,99.71
2023-02-15T01:46:35.172Z,99.93
2023-02-15T01:49:13.771Z,99.94
2023-02-15T01:51:45.340Z,99.90
2023-02-15T01:54:20.940Z,100.00
2023-02-15T01:56:50.584Z,100.00
2023-02-15T01:59:22.442Z,100.00
2023-02-15T02:01:55.987Z,100.00
2023-02-15T02:04:39.134Z,100.00
2023-02-15T02:07:10.060Z,100.00
2023-02-15T02:09:40.431Z,100.00
2023-02-15T02:12:10.466Z,100.00
2023-02-15T02:14:42.461Z,100.00
2023-02-15T02:17:39.775Z,100.00
2023-02-15T02:20:25.048Z,100.00
2023-02-15T02:23:17.625Z,100.00
2023-02-15T02:26:13.165Z,100.00
2023-02-15T02:28:46.113Z,100.00
2023-02-15T02:31:18.683Z,100.00
2023-02-15T02:34:03.602Z,100.00
2023-02-15T02:36:45.007Z,100.00
2023-02-15T02:39:32.488Z,100.00
2023-02-15T02:42:16.236Z,100.00
2023-02-15T02:44:48.091Z,100.00
2023-02-15T02:47:23.741Z,100.00
2023-02-15T02:50:05.592Z,100.00
2023-02-15T02:52:46.806Z,100.00
2023-02-15T02:55:34.741Z,100.00
2023-02-15T02:58:24.257Z,100.00
2023-02-15T03:01:07.427Z,100.00
2023-02-15T03:03:42.580Z,100.00
2023-02-15T03:06:24.763Z,100.00
2023-02-15T03:09:00.120Z,100.00
2023-02-15T03:11:29.704Z,100.00
2023-02-15T03:13:59.717Z,100.00
2023-02-15T03:16:30.273Z,100.00
2023-02-15T03:19:02.903Z,100.00
2023-02-15T03:21:36.268Z,100.00
2023-02-15T03:24:16.488Z,100.00
2023-02-15T03:26:48.151Z,100.00
2023-02-15T03:29:18.786Z,100.00
2023-02-15T03:31:51.050Z,100.00
2023-02-15T03:34:19.630Z,100.00
2023-02-15T03:37:08.341Z,100.00
2023-02-15T03:39:49.909Z,100.00
2023-02-15T03:42:35.784Z,100.00
2023-02-15T03:45:11.224Z,100.00
2023-02-15T03:47:43.669Z,100.00
2023-02-15T03:50:32.029Z,100.00
2023-02-15T03:53:02.546Z,100.00
2023-02-15T03:55:31.967Z,100.00
2023-02-15T03:58:19.490Z,100.00
2023-02-15T04:01:09.649Z,100.00
2023-02-15T04:03:44.905Z,100.00
2023-02-15T04:06:14.192Z,100.00
2023-02-15T04:09:01.576Z,100.00
2023-02-15T04:11:31.052Z,100.00
2023-02-15T04:14:01.919Z,100.00
2023-02-15T04:16:31.420Z,100.00
2023-02-15T04:19:18.546Z,100.00
2023-02-15T04:22:05.708Z,100.00
2023-02-15T04:24:52.771Z,100.00
2023-02-15T04:27:22.220Z,100.00
2023-02-15T04:29:51.497Z,100.00
2023-02-15T04:32:20.921Z,100.00
2023-02-15T04:34:50.191Z,100.00
2023-02-15T04:37:19.760Z,100.00
2023-02-15T04:39:50.689Z,100.00
2023-02-15T04:42:19.942Z,100.00
2023-02-15T04:44:49.200Z,100.00
2023-02-15T04:47:18.798Z,100.00
2023-02-15T04:49:48.123Z,100.00
2023-02-15T04:52:19.400Z,100.00
2023-02-15T04:54:49.650Z,100.00
2023-02-15T04:57:18.854Z,100.00
2023-02-15T04:59:48.170Z,100.00
2023-02-15T05:02:17.818Z,100.00
2023-02-15T05:04:47.102Z,100.00
2023-02-15T05:07:16.684Z,100.00
2023-02-15T05:09:45.994Z,100.00
2023-02-15T05:12:15.409Z,100.00
2023-02-15T05:14:44.660Z,100.00
2023-02-15T05:17:13.920Z,100.00
2023-02-15T05:19:43.168Z,100.00
2023-02-15T05:22:12.484Z,100.00
2023-02-15T05:24:59.732Z,100.00
2023-02-15T05:27:47.041Z,100.00
2023-02-15T05:30:16.701Z,100.00
2023-02-15T05:32:46.169Z,100.00
2023-02-15T05:35:17.463Z,100.00
2023-02-15T05:37:46.687Z,100.00
2023-02-15T05:40:16.216Z,100.00
2023-02-15T05:42:45.429Z,100.00
2023-02-15T05:45:15.151Z,100.00
2023-02-15T05:47:45.137Z,100.00
2023-02-15T05:50:14.543Z,100.00
2023-02-15T05:52:44.274Z,100.00
2023-02-15T05:55:13.657Z,100.00
2023-02-15T05:57:42.928Z,100.00
2023-02-15T06:00:14.941Z,100.00
2023-02-15T06:02:44.415Z,100.00
2023-02-15T06:05:13.794Z,100.00
2023-02-15T06:07:45.818Z,100.00
2023-02-15T06:10:15.469Z,100.00
2023-02-15T06:12:46.408Z,100.00
2023-02-15T06:15:16.078Z,100.00
2023-02-15T06:17:45.678Z,100.00
2023-02-15T06:20:15.365Z,100.00
2023-02-15T06:22:44.583Z,100.00
2023-02-15T06:25:13.837Z,100.00
2023-02-15T06:27:45.805Z,100.00
2023-02-15T06:30:15.879Z,100.00
2023-02-15T06:32:45.302Z,100.00
2023-02-15T06:35:14.565Z,100.00
2023-02-15T06:37:43.853Z,100.00
2023-02-15T06:40:13.995Z,100.00
2023-02-15T06:42:44.788Z,100.00
2023-02-15T06:45:14.200Z,100.00
2023-02-15T06:47:43.618Z,100.00
2023-02-15T06:50:13.600Z,100.00
2023-02-15T06:52:42.850Z,100.00
2023-02-15T06:55:12.240Z,100.00
2023-02-15T06:57:41.486Z,100.00
2023-02-15T07:00:11.908Z,100.00
2023-02-15T07:02:41.166Z,100.00
2023-02-15T07:05:10.891Z,100.00
2023-02-15T07:07:40.166Z,100.00
2023-02-15T07:10:10.009Z,100.00
2023-02-15T07:12:46.670Z,100.00
2023-02-15T07:15:18.414Z,100.00
2023-02-15T07:17:47.920Z,100.00
2023-02-15T07:20:24.364Z,100.00
2023-02-15T07:22:53.753Z,100.00
2023-02-15T07:25:23.005Z,100.00
2023-02-15T07:28:00.228Z,100.00
2023-02-15T07:30:30.096Z,100.00
2023-02-15T07:33:18.687Z,100.00
2023-02-15T07:35:58.011Z,100.00
2023-02-15T07:38:35.606Z,100.00
2023-02-15T07:41:07.500Z,100.00
2023-02-15T07:43:39.237Z,100.00
2023-02-15T07:46:10.205Z,100.00
2023-02-15T07:48:40.719Z,100.00
2023-02-15T07:51:11.918Z,100.00
2023-02-15T07:53:41.872Z,100.00
2023-02-15T07:56:15.109Z,100.00
2023-02-15T07:58:53.478Z,100.00
2023-02-15T08:01:28.252Z,99.48
2023-02-15T08:03:58.330Z,99.00
2023-02-15T08:06:30.546Z,98.84
2023-02-15T08:08:59.803Z,98.18
2023-02-15T08:11:34.213Z,97.73
2023-02-15T08:14:12.240Z,96.69
2023-02-15T08:16:50.120Z,96.21
2023-02-15T08:19:25.659Z,94.64
2023-02-15T08:21:59.163Z,92.56
2023-02-15T08:24:31.933Z,91.88
2023-02-15T08:27:05.094Z,92.48
2023-02-15T08:29:36.354Z,91.81
2023-02-15T08:32:08.266Z,91.93
2023-02-15T08:34:40.737Z,90.13
2023-02-15T08:37:09.535Z,90.49
2023-02-15T08:39:39.111Z,89.88
2023-02-15T08:42:08.637Z,90.15
2023-02-15T08:44:38.180Z,90.01
2023-02-15T08:47:07.576Z,89.33
2023-02-15T08:49:36.818Z,88.92
2023-02-15T08:52:06.160Z,88.84
2023-02-15T08:54:35.789Z,88.04
2023-02-15T08:57:05.743Z,88.10
2023-02-15T08:59:35.218Z,87.32
2023-02-15T09:02:04.529Z,87.12
2023-02-15T09:04:34.150Z,85.17
2023-02-15T09:07:05.042Z,82.45
2023-02-15T09:09:34.584Z,80.56
2023-02-15T09:12:03.909Z,76.18
2023-02-15T09:14:33.477Z,74.59
2023-02-15T09:17:03.090Z,72.32
2023-02-15T09:19:32.339Z,72.32
2023-02-15T09:22:01.976Z,71.71
2023-02-15T09:24:34.797Z,71.81
2023-02-15T09:27:04.185Z,68.40
2023-02-15T09:29:33.555Z,67.29
2023-02-15T09:32:02.968Z,64.70
2023-02-15T09:34:34.158Z,65.16
2023-02-15T09:37:03.917Z,63.34
2023-02-15T09:39:35.154Z,62.36
2023-02-15T09:42:24.329Z,62.07
2023-02-15T09:45:04.557Z,61.96
2023-02-15T09:47:56.681Z,63.50
2023-02-15T09:50:53.580Z,63.48
2023-02-15T09:53:41.270Z,63.80
2023-02-15T09:56:25.573Z,62.37
2023-02-15T09:59:17.632Z,62.13
2023-02-15T10:01:53.036Z,61.20
2023-02-15T10:05:01.454Z,58.72
2023-02-15T10:07:39.510Z,57.90
2023-02-15T10:10:19.040Z,56.01
2023-02-15T10:13:11.376Z,55.62
2023-02-15T10:16:04.383Z,57.54
2023-02-15T10:18:34.797Z,57.54
2023-02-15T10:21:19.698Z,57.79
2023-02-15T10:24:25.392Z,57.67
2023-02-15T10:26:57.215Z,57.53
2023-02-15T10:29:38.243Z,57.93
2023-02-15T10:32:25.690Z,55.96
2023-02-15T10:35:03.655Z,55.33
2023-02-15T10:37:36.106Z,54.67
2023-02-15T10:40:30.041Z,55.04
2023-02-15T10:43:14.564Z,57.27
2023-02-15T10:45:57.884Z,57.97
2023-02-15T10:48:35.573Z,58.98
2023-02-15T10:51:05.971Z,58.95
2023-02-15T10:53:41.350Z,58.62
2023-02-15T10:56:22.346Z,58.10
2023-02-15T10:59:03.197Z,56.47
2023-02-15T11:01:53.750Z,54.55
2023-02-15T11:04:42.391Z,54.94
2023-02-15T11:07:23.861Z,55.27
2023-02-15T11:10:05.565Z,53.34
2023-02-15T11:12:35.716Z,52.58
2023-02-15T11:15:22.180Z,51.12
2023-02-15T11:18:07.202Z,53.10
2023-02-15T11:20:39.855Z,50.80
2023-02-15T11:23:16.911Z,51.78
2023-02-15T11:25:48.392Z,54.31
2023-02-15T11:28:29.748Z,52.86
2023-02-15T11:31:01.310Z,52.36
2023-02-15T11:33:36.915Z,52.99
2023-02-15T11:36:21.301Z,50.60
2023-02-15T11:38:53.680Z,50.93
2023-02-15T11:41:26.034Z,50.51
2023-02-15T11:44:10.126Z,51.74
2023-02-15T11:46:39.819Z,49.90
2023-02-15T11:49:30.224Z,50.57
2023-02-15T11:52:00.164Z,51.65
2023-02-15T11:54:33.147Z,50.93
2023-02-15T11:57:23.157Z,50.94
2023-02-15T12:00:02.172Z,51.28
2023-02-15T12:02:35.454Z,50.12
2023-02-15T12:05:10.932Z,47.05
2023-02-15T12:07:49.186Z,48.21
2023-02-15T12:10:30.337Z,48.38
2023-02-15T12:13:17.207Z,50.27
2023-02-15T12:15:51.023Z,50.16
2023-02-15T12:18:40.281Z,50.76
2023-02-15T12:21:12.890Z,49.59
2023-02-15T12:23:51.669Z,50.35
2023-02-15T12:26:36.389Z,50.08
2023-02-15T12:29:19.257Z,49.78
2023-02-15T12:31:51.722Z,49.30
2023-02-15T12:34:22.019Z,50.36
2023-02-15T12:36:57.872Z,51.06
2023-02-15T12:39:28.985Z,51.81
2023-02-15T12:42:01.861Z,49.77
2023-02-15T12:44:34.654Z,48.15
2023-02-15T12:47:10.050Z,49.30
2023-02-15T12:49:40.504Z,49.50
2023-02-15T12:52:23.958Z,50.93
2023-02-15T12:54:53.762Z,51.90
2023-02-15T12:57:32.354Z,53.15
2023-02-15T13:00:04.960Z,51.75
2023-02-15T13:02:51.033Z,52.07
2023-02-15T13:05:27.227Z,51.80
2023-02-15T13:07:59.116Z,49.69
2023-02-15T13:10:31.004Z,50.00
2023-02-15T13:13:00.695Z,52.09
2023-02-15T13:15:38.568Z,52.62
2023-02-15T13:18:11.428Z,54.18
2023-02-15T13:20:41.881Z,54.87
2023-02-15T13:23:19.874Z,54.38
2023-02-15T13:25:51.569Z,55.27
2023-02-15T13:28:22.584Z,55.53
2023-02-15T13:30:53.246Z,55.19
2023-02-15T13:33:39.418Z,56.24
2023-02-15T13:36:15.926Z,55.91
2023-02-15T13:38:54.997Z,55.99
2023-02-15T13:41:27.717Z,56.33
2023-02-15T13:44:24.617Z,57.70
2023-02-15T13:47:12.494Z,56.77
2023-02-15T13:49:53.857Z,57.38
2023-02-15T13:52:25.577Z,57.50
2023-02-15T13:55:24.928Z,57.85
2023-02-15T13:58:09.184Z,57.88
2023-02-15T14:00:47.424Z,58.43
2023-02-15T14:03:31.952Z,56.97
2023-02-15T14:06:31.509Z,57.27
2023-02-15T14:09:13.217Z,57.55
2023-02-15T14:11:57.516Z,59.56
2023-02-15T14:14:40.569Z,59.37
2023-02-15T14:17:35.130Z,58.65
2023-02-15T14:20:10.821Z,61.22
2023-02-15T14:22:49.267Z,60.09
2023-02-15T14:25:33.308Z,60.11
2023-02-15T14:28:11.753Z,60.16
2023-02-15T14:30:43.534Z,60.17
2023-02-15T14:33:35.918Z,59.83
2023-02-15T14:36:07.620Z,60.61
2023-02-15T14:38:54.839Z,59.91
2023-02-15T14:41:30.049Z,60.22
2023-02-15T14:44:05.740Z,58.50
2023-02-15T14:46:41.161Z,58.67
2023-02-15T14:49:28.823Z,59.38
2023-02-15T14:52:00.445Z,59.12
2023-02-15T14:54:34.478Z,58.54
2023-02-15T14:57:11.044Z,57.47
2023-02-15T14:59:49.564Z,57.97
2023-02-15T15:02:27.445Z,57.79
2023-02-15T15:05:06.410Z,59.08
2023-02-15T15:07:47.948Z,58.76
2023-02-15T15:10:21.545Z,59.04
2023-02-15T15:12:51.785Z,59.93
2023-02-15T15:15:33.590Z,58.89
2023-02-15T15:18:09.881Z,58.84
2023-02-15T15:20:51.886Z,59.46
2023-02-15T15:23:23.696Z,58.97
2023-02-15T15:26:02.303Z,59.08
2023-02-15T15:28:41.029Z,57.86
2023-02-15T15:31:26.117Z,57.60
2023-02-15T15:34:17.809Z,59.31
2023-02-15T15:36:56.020Z,59.26
2023-02-15T15:39:46.554Z,60.56
2023-02-15T15:42:35.808Z,60.76
2023-02-15T15:45:20.805Z,60.40
2023-02-15T15:48:28.020Z,60.46
2023-02-15T15:51:00.706Z,61.29
2023-02-15T15:53:33.552Z,61.40
2023-02-15T15:56:07.934Z,61.76
2023-02-15T15:58:37.385Z,61.30
2023-02-15T16:01:13.384Z,61.53
2023-02-15T16:03:51.117Z,62.96
2023-02-15T16:06:32.269Z,62.31
2023-02-15T16:09:13.637Z,62.22
2023-02-15T16:11:43.201Z,62.59
2023-02-15T16:14:15.621Z,62.73
2023-02-15T16:16:51.551Z,62.86
2023-02-15T16:19:24.317Z,63.04
2023-02-15T16:21:53.638Z,63.71
2023-02-15T16:24:59.866Z,64.22
2023-02-15T16:27:43.050Z,64.03
2023-02-15T16:30:29.908Z,64.46
2023-02-15T16:33:08.349Z,64.81
2023-02-15T16:35:39.798Z,65.11
2023-02-15T16:38:11.732Z,64.62
2023-02-15T16:40:47.178Z,64.70
2023-02-15T16:43:19.027Z,64.83
2023-02-15T16:45:48.545Z,65.60
2023-02-15T16:48:23.422Z,65.59
2023-02-15T16:50:58.623Z,65.32
2023-02-15T16:53:29.595Z,65.71
2023-02-15T16:56:04.382Z,65.72
2023-02-15T16:58:39.346Z,65.60
2023-02-15T17:01:10.646Z,66.12
2023-02-15T17:03:41.417Z,65.88
2023-02-15T17:06:27.843Z,66.39
2023-02-15T17:09:05.640Z,66.35
2023-02-15T17:11:40.602Z,66.47
2023-02-15T17:14:14.671Z,66.70
2023-02-15T17:16:47.468Z,67.56
2023-02-15T17:19:32.222Z,67.82
2023-02-15T17:22:07.821Z,67.91
2023-02-15T17:24:39.763Z,68.09
2023-02-15T17:27:23.267Z,68.76
2023-02-15T17:29:54.754Z,69.37
2023-02-15T17:32:27.093Z,70.06
2023-02-15T17:35:11.340Z,69.90
2023-02-15T17:37:44.481Z,69.88
2023-02-15T17:40:29.060Z,70.38
2023-02-15T17:42:58.661Z,69.96
2023-02-15T17:45:33.488Z,70.72
2023-02-15T17:48:05.436Z,71.22
2023-02-15T17:50:35.007Z,70.90
2023-02-15T17:53:04.721Z,71.06
2023-02-15T17:55:38.409Z,70.86
2023-02-15T17:58:11.385Z,71.12
2023-02-15T18:01:04.202Z,71.00
2023-02-15T18:04:04.155Z,71.20
2023-02-15T18:06:52.237Z,72.04
2023-02-15T18:09:40.884Z,72.38
2023-02-15T18:12:28.422Z,73.01
2023-02-15T18:14:59.112Z,73.03
2023-02-15T18:17:42.758Z,73.75
2023-02-15T18:20:24.573Z,73.57
2023-02-15T18:22:54.361Z,74.15
2023-02-15T18:25:25.768Z,73.88
2023-02-15T18:27:55.589Z,73.94
2023-02-15T18:30:27.096Z,73.95
2023-02-15T18:32:57.856Z,74.12
2023-02-15T18:35:29.895Z,74.00
2023-02-15T18:38:00.190Z,74.06
2023-02-15T18:40:30.866Z,74.25
2023-02-15T18:43:00.144Z,74.09
2023-02-15T18:45:32.502Z,74.60
2023-02-15T18:48:01.929Z,74.89
2023-02-15T18:50:34.600Z,74.67
2023-02-15T18:53:05.517Z,74.76
2023-02-15T18:55:35.550Z,74.58
2023-02-15T18:58:05.218Z,74.47
2023-02-15T19:00:36.691Z,75.11
2023-02-15T19:03:06.666Z,74.50
2023-02-15T19:05:36.215Z,74.44
2023-02-15T19:08:06.198Z,74.34
2023-02-15T19:10:35.780Z,74.67
2023-02-15T19:13:07.114Z,74.69
2023-02-15T19:15:36.349Z,73.99
2023-02-15T19:18:06.336Z,74.85
2023-02-15T19:20:46.357Z,74.61
2023-02-15T19:23:21.204Z,74.91
2023-02-15T19:25:51.382Z,75.51
2023-02-15T19:28:24.228Z,75.44
2023-02-15T19:30:53.923Z,75.07
2023-02-15T19:33:24.057Z,75.50
2023-02-15T19:35:56.827Z,76.17
2023-02-15T19:38:31.510Z,76.45
2023-02-15T19:41:09.286Z,77.06
2023-02-15T19:43:38.666Z,76.48
2023-02-15T19:46:10.017Z,76.29
2023-02-15T19:48:39.239Z,76.35
2023-02-15T19:51:09.674Z,77.45
2023-02-15T19:53:38.960Z,77.50
2023-02-15T19:56:17.679Z,77.31
2023-02-15T19:58:48.551Z,76.96
2023-02-15T20:01:18.307Z,77.10
2023-02-15T20:03:47.584Z,77.20
2023-02-15T20:06:17.163Z,77.40
2023-02-15T20:08:46.849Z,77.54
2023-02-15T20:11:16.184Z,77.32
2023-02-15T20:13:45.502Z,77.81
2023-02-15T20:16:15.200Z,77.75
2023-02-15T20:18:46.526Z,77.61
2023-02-15T20:21:17.570Z,77.00
2023-02-15T20:23:47.080Z,77.29
2023-02-15T20:26:18.829Z,77.61
2023-02-15T20:28:48.841Z,77.25
2023-02-15T20:31:20.793Z,76.91
2023-02-15T20:33:50.793Z,76.62
2023-02-15T20:36:22.333Z,76.03
2023-02-15T20:38:52.181Z,76.48
2023-02-15T20:41:39.309Z,77.02
2023-02-15T20:44:29.441Z,77.60
2023-02-15T20:47:01.601Z,77.97
2023-02-15T20:49:31.012Z,78.26
2023-02-15T20:52:02.014Z,78.59
2023-02-15T20:54:33.938Z,79.04
2023-02-15T20:57:05.407Z,78.82
2023-02-15T20:59:37.833Z,79.12
2023-02-15T21:02:19.151Z,78.97
2023-02-15T21:04:48.495Z,79.32
2023-02-15T21:07:22.634Z,78.64
2023-02-15T21:09:53.529Z,78.72
2023-02-15T21:12:23.691Z,78.84
2023-02-15T21:14:53.014Z,79.02
2023-02-15T21:17:23.494Z,79.14
2023-02-15T21:19:52.785Z,79.19
2023-02-15T21:22:23.344Z,79.48
2023-02-15T21:24:55.074Z,79.42
2023-02-15T21:27:24.665Z,79.71
2023-02-15T21:29:54.330Z,80.41
2023-02-15T21:32:24.070Z,80.60
2023-02-15T21:34:54.034Z,80.47
2023-02-15T21:37:34.179Z,80.45
2023-02-15T21:40:05.468Z,80.33
2023-02-15T21:42:52.782Z,80.91
2023-02-15T21:45:40.350Z,81.08
2023-02-15T21:48:10.109Z,81.29
2023-02-15T21:50:58.408Z,81.13
2023-02-15T21:53:36.495Z,81.30
2023-02-15T21:56:07.985Z,81.44
2023-02-15T21:58:37.828Z,81.74
2023-02-15T22:01:08.098Z,81.70
2023-02-15T22:03:39.642Z,81.79
2023-02-15T22:06:11.019Z,81.77
2023-02-15T22:08:48.290Z,81.95
2023-02-15T22:11:25.605Z,81.96
2023-02-15T22:13:55.240Z,82.17
2023-02-15T22:16:26.757Z,81.70
2023-02-15T22:19:19.639Z,81.45
2023-02-15T22:21:51.796Z,81.37
2023-02-15T22:24:22.132Z,81.03
2023-02-15T22:26:52.939Z,81.33
2023-02-15T22:29:23.980Z,81.64
2023-02-15T22:31:55.183Z,81.60
2023-02-15T22:34:29.666Z,81.80
2023-02-15T22:36:59.981Z,82.42
2023-02-15T22:39:42.705Z,81.95
2023-02-15T22:42:27.147Z,82.17
2023-02-15T22:44:58.128Z,82.23
2023-02-15T22:47:29.886Z,82.06
2023-02-15T22:49:59.156Z,82.41
2023-02-15T22:52:28.551Z,82.54
2023-02-15T22:54:57.754Z,82.23
2023-02-15T22:57:31.792Z,81.71
2023-02-15T23:00:01.411Z,82.01
2023-02-15T23:02:30.807Z,82.21
2023-02-15T23:05:00.215Z,82.35
2023-02-15T23:07:29.690Z,81.91
2023-02-15T23:09:59.391Z,81.98
2023-02-15T23:12:35.038Z,82.46
2023-02-15T23:15:04.414Z,82.57
2023-02-15T23:17:33.897Z,82.32
2023-02-15T23:20:03.107Z,82.49
2023-02-15T23:22:32.498Z,82.80
2023-02-15T23:25:01.714Z,83.01
2023-02-15T23:27:50.884Z,83.00
2023-02-15T23:30:20.449Z,82.83
2023-02-15T23:32:50.277Z,83.02
2023-02-15T23:35:20.725Z,83.33
2023-02-15T23:37:50.119Z,83.14
2023-02-15T23:40:39.639Z,83.22
2023-02-15T23:43:12.291Z,83.46
2023-02-15T23:45:41.759Z,83.81
2023-02-15T23:48:32.376Z,84.11
2023-02-15T23:51:02.251Z,84.28
2023-02-15T23:53:33.488Z,84.02
2023-02-15T23:56:03.384Z,83.76
2023-02-15T23:58:41.438Z,84.03
